Observation data for Post on 01/11/2018      Previous  Date  Next       Current Mesonet Observations  Soil Data  Daily Summary Page  Observations in Plain Language
KPT1 110600Z 22018G25KT 11/01 A2963 RMK A01 T01130007  RH  049%=      5-min Rain = 0
KPT1 110605Z 22017G24KT 11/01 A2963 RMK A01 T01130006  RH  048%=      5-min Rain = 0
KPT1 110610Z 22017G23KT 11/01 A2962 RMK A01 T01120005  RH  048%=      5-min Rain = 0
KPT1 110615Z 22018G26KT 11/01 A2962 RMK A01 T01110005  RH  048%=      5-min Rain = 0
KPT1 110620Z 23018G28KT 11/00 A2962 RMK A01 T01110003  RH  048%=      5-min Rain = 0
KPT1 110625Z 23018G25KT 11/00 A2962 RMK A01 T01130001  RH  047%=      5-min Rain = 0
KPT1 110630Z 23017G26KT 11/00 A2962 RMK A01 T011300-0  RH  046%=      5-min Rain = 0
KPT1 110635Z 23018G25KT 11/M00 A2962 RMK A01 T01121001  RH  046%=      5-min Rain = 0
KPT1 110640Z 23016G22KT 11/00 A2962 RMK A01 T011000-0  RH  047%=      5-min Rain = 0
KPT1 110645Z 23017G22KT 11/M00 A2962 RMK A01 T01101001  RH  047%=      5-min Rain = 0
KPT1 110650Z 23017G23KT 11/00 A2962 RMK A01 T010900-0  RH  047%=      5-min Rain = 0
KPT1 110655Z 22017G25KT 11/00 A2961 RMK A01 T01080000  RH  048%=      5-min Rain = 0
KPT1 110700Z 23017G26KT 11/00 A2961 RMK A01 T01080000  RH  048%=      5-min Rain = 0
KPT1 110705Z 23017G23KT 11/00 A2961 RMK A01 T010900-0  RH  047%=      5-min Rain = 0
KPT1 110710Z 23017G24KT 11/M00 A2962 RMK A01 T01081001  RH  048%=      5-min Rain = 0
KPT1 110715Z 22016G22KT 11/00 A2962 RMK A01 T010700-0  RH  048%=      5-min Rain = 0
KPT1 110720Z 23016G22KT 10/00 A2962 RMK A01 T01040000  RH  049%=      5-min Rain = 0
KPT1 110725Z 23017G25KT 10/00 A2962 RMK A01 T01040000  RH  049%=      5-min Rain = 0
KPT1 110730Z 23017G24KT 11/00 A2962 RMK A01 T010500-0  RH  049%=      5-min Rain = 0
KPT1 110735Z 23018KT 11/M00 A2962 RMK A01 T01051001  RH  049%=      5-min Rain = 0
KPT1 110740Z 23017G23KT 11/M00 A2962 RMK A01 T01051001  RH  048%=      5-min Rain = 0
KPT1 110745Z 23019G27KT 11/M00 A2962 RMK A01 T01061002  RH  048%=      5-min Rain = 0
KPT1 110750Z 23018G25KT 11/M00 A2962 RMK A01 T01061002  RH  048%=      5-min Rain = 0
KPT1 110755Z 24020G28KT 11/M00 A2962 RMK A01 T01061002  RH  048%=      5-min Rain = 0
KPT1 110800Z 24020G29KT 11/M00 A2962 RMK A01 T01061002  RH  048%=      5-min Rain = 0
KPT1 110805Z 24021G28KT 11/M00 A2962 RMK A01 T01061002  RH  048%=      5-min Rain = 0
KPT1 110810Z 24021G30KT 11/M00 A2962 RMK A01 T01061002  RH  048%=      5-min Rain = 0
KPT1 110815Z 24022G28KT 11/M00 A2961 RMK A01 T01051002  RH  048%=      5-min Rain = 0
KPT1 110820Z 24021G27KT 11/M00 A2961 RMK A01 T01051002  RH  048%=      5-min Rain = 0
KPT1 110825Z 24021G27KT 11/M00 A2961 RMK A01 T01061003  RH  048%=      5-min Rain = 0
KPT1 110830Z 24019G25KT 11/M00 A2961 RMK A01 T01071003  RH  047%=      5-min Rain = 0
KPT1 110835Z 24019G27KT 10/M00 A2961 RMK A01 T01041004  RH  048%=      5-min Rain = 0
KPT1 110840Z 24022G30KT 10/M00 A2961 RMK A01 T01041004  RH  048%=      5-min Rain = 0
KPT1 110845Z 24021G27KT 11/M00 A2961 RMK A01 T01051004  RH  048%=      5-min Rain = 0
KPT1 110850Z 24022G30KT 10/M00 A2961 RMK A01 T01031004  RH  048%=      5-min Rain = 0
KPT1 110855Z 24021G28KT 10/M00 A2962 RMK A01 T01021004  RH  048%=      5-min Rain = 0
KPT1 110900Z 24021G27KT 10/M00 A2962 RMK A01 T01011004  RH  048%=      5-min Rain = 0
KPT1 110905Z 24021G28KT 10/M00 A2962 RMK A01 T01021004  RH  048%=      5-min Rain = 0
KPT1 110910Z 25019G25KT 10/M00 A2962 RMK A01 T01021004  RH  048%=      5-min Rain = 0
KPT1 110915Z 24019G25KT 10/M01 A2962 RMK A01 T01011005  RH  048%=      5-min Rain = 0
KPT1 110920Z 24019G27KT 10/M01 A2963 RMK A01 T01011005  RH  048%=      5-min Rain = 0
KPT1 110925Z 25019G29KT 10/M01 A2963 RMK A01 T01011005  RH  048%=      5-min Rain = 0
KPT1 110930Z 25019G25KT 10/M01 A2963 RMK A01 T00991005  RH  049%=      5-min Rain = 0
KPT1 110935Z 25018G24KT 10/M01 A2963 RMK A01 T00991005  RH  049%=      5-min Rain = 0
KPT1 110940Z 25020G27KT 10/M01 A2964 RMK A01 T00991005  RH  049%=      5-min Rain = 0
KPT1 110945Z 25019G26KT 10/M01 A2964 RMK A01 T00981005  RH  049%=      5-min Rain = 0
KPT1 110950Z 25018G25KT 10/M01 A2965 RMK A01 T00981005  RH  049%=      5-min Rain = 0
KPT1 110955Z 25018G26KT 10/M01 A2965 RMK A01 T00991005  RH  049%=      5-min Rain = 0
KPT1 111000Z 25020G27KT 10/M01 A2965 RMK A01 T01001005  RH  049%=      5-min Rain = 0
KPT1 111005Z 26018G24KT 10/M01 A2966 RMK A01 T01001005  RH  049%=      5-min Rain = 0
KPT1 111010Z 26017G24KT 10/M01 A2967 RMK A01 T00981005  RH  049%=      5-min Rain = 0
KPT1 111015Z 26018G25KT 10/M00 A2967 RMK A01 T00991004  RH  049%=      5-min Rain = 0
KPT1 111020Z 26018G24KT 10/M00 A2967 RMK A01 T01001004  RH  049%=      5-min Rain = 0
KPT1 111025Z 27018G24KT 10/M00 A2967 RMK A01 T01001004  RH  049%=      5-min Rain = 0
KPT1 111030Z 27016G22KT 10/M00 A2967 RMK A01 T00981004  RH  049%=      5-min Rain = 0
KPT1 111035Z 27015G21KT 10/M00 A2967 RMK A01 T00971004  RH  050%=      5-min Rain = 0
KPT1 111040Z 27016KT 10/M00 A2967 RMK A01 T00991003  RH  050%=      5-min Rain = 0
KPT1 111045Z 27016G21KT 10/M00 A2967 RMK A01 T01011002  RH  049%=      5-min Rain = 0
KPT1 111050Z 27016G22KT 10/M00 A2967 RMK A01 T01011002  RH  049%=      5-min Rain = 0
KPT1 111055Z 28016G25KT 10/M00 A2968 RMK A01 T01021001  RH  049%=      5-min Rain = 0
KPT1 111100Z 29017G23KT 11/00 A2968 RMK A01 T01050001  RH  049%=      5-min Rain = 0
KPT1 111105Z 29016G22KT 11/00 A2968 RMK A01 T01050002  RH  050%=      5-min Rain = 0
KPT1 111110Z 29015G20KT 10/00 A2969 RMK A01 T01040003  RH  050%=      5-min Rain = 0
KPT1 111115Z 29015G22KT 11/01 A2969 RMK A01 T01060008  RH  051%=      5-min Rain = 0
KPT1 111120Z 31015G22KT 11/01 A297 RMK A01 T01080014  RH  053%=      5-min Rain = 0
KPT1 111125Z 32017G26KT 11/02 A297 RMK A01 T01070017  RH  054%=      5-min Rain = 0
KPT1 111130Z 33021G28KT 11/02 A297 RMK A01 T01060016  RH  055%=      5-min Rain = 0
KPT1 111135Z 32021G30KT 11/01 A2971 RMK A01 T01050014  RH  054%=      5-min Rain = 0
KPT1 111140Z 33020G27KT 10/01 A2972 RMK A01 T01030013  RH  054%=      5-min Rain = 0
KPT1 111145Z 34020G27KT 10/01 A2973 RMK A01 T01010011  RH  054%=      5-min Rain = 0
KPT1 111150Z 33020G28KT 10/01 A2973 RMK A01 T00980010  RH  055%=      5-min Rain = 0
KPT1 111155Z 33019G26KT 09/01 A2974 RMK A01 T00940008  RH  056%=      5-min Rain = 0
KPT1 111200Z 33020G27KT 09/01 A2974 RMK A01 T00900006  RH  056%=      5-min Rain = 0
KPT1 111205Z 33019G27KT 09/01 A2975 RMK A01 T00870006  RH  057%=      5-min Rain = 0
KPT1 111210Z 33022G35KT 09/00 A2976 RMK A01 T00850004  RH  058%=      5-min Rain = 0
KPT1 111215Z 33022G33KT 08/00 A2976 RMK A01 T00820003  RH  058%=      5-min Rain = 0
KPT1 111220Z 33022G35KT 08/00 A2977 RMK A01 T00790002  RH  059%=      5-min Rain = 0
KPT1 111225Z 33027G35KT 08/M00 A2978 RMK A01 T00751001  RH  059%=      5-min Rain = 0
KPT1 111230Z 33028G36KT 07/M01 A2979 RMK A01 T00671007  RH  060%=      5-min Rain = 0
KPT1 111235Z 33026G38KT 06/M01 A298 RMK A01 T00601012  RH  061%=      5-min Rain = 0
KPT1 111240Z 33024G34KT 06/M02 A2981 RMK A01 T00561015  RH  061%=      5-min Rain = 0
KPT1 111245Z 33024G32KT 06/M02 A2982 RMK A01 T00551017  RH  061%=      5-min Rain = 0
KPT1 111250Z 33025G36KT 05/M02 A2982 RMK A01 T00531018  RH  061%=      5-min Rain = 0
KPT1 111255Z 34024G33KT 05/M02 A2982 RMK A01 T00531018  RH  061%=      5-min Rain = 0
KPT1 111300Z 33022G29KT 05/M02 A2983 RMK A01 T00531018  RH  061%=      5-min Rain = 0
KPT1 111305Z 34023G33KT 05/M02 A2984 RMK A01 T00521019  RH  061%=      5-min Rain = 0
KPT1 111310Z 34025G36KT 05/M02 A2984 RMK A01 T00481022  RH  061%=      5-min Rain = 0
KPT1 111315Z 35019G27KT 05/M02 A2985 RMK A01 T00461024  RH  061%=      5-min Rain = 0
KPT1 111320Z 35018G25KT 05/M03 A2985 RMK A01 T00461025  RH  061%=      5-min Rain = 0
KPT1 111325Z 34023G29KT 05/M03 A2986 RMK A01 T00461026  RH  060%=      5-min Rain = 0
KPT1 111330Z 34019G25KT 05/M03 A2986 RMK A01 T00451028  RH  060%=      5-min Rain = 0
KPT1 111335Z 34019G25KT 04/M03 A2986 RMK A01 T00441028  RH  060%=      5-min Rain = 0
KPT1 111340Z 34017G24KT 05/M03 A2987 RMK A01 T00451028  RH  060%=      5-min Rain = 0
KPT1 111345Z 34020G27KT 05/M03 A2987 RMK A01 T00451028  RH  060%=      5-min Rain = 0
KPT1 111350Z 34014G19KT 05/M03 A2988 RMK A01 T00451027  RH  060%=      5-min Rain = 0
KPT1 111355Z 33015G24KT 05/M03 A2988 RMK A01 T00451027  RH  060%=      5-min Rain = 0
KPT1 111400Z 32018G24KT 04/M03 A2989 RMK A01 T00441033  RH  058%=      5-min Rain = 0
KPT1 111405Z 33022G30KT 04/M04 A2989 RMK A01 T00401039  RH  057%=      5-min Rain = 0
KPT1 111410Z 33023G33KT 04/M05 A299 RMK A01 T00351047  RH  056%=      5-min Rain = 0
KPT1 111415Z 33026G34KT 03/M05 A2991 RMK A01 T00321049  RH  056%=      5-min Rain = 0
KPT1 111420Z 34021G31KT 03/M05 A2992 RMK A01 T00321049  RH  056%=      5-min Rain = 0
KPT1 111425Z 33022G31KT 03/M05 A2992 RMK A01 T00301051  RH  056%=      5-min Rain = 0
KPT1 111430Z 33024G30KT 03/M05 A2993 RMK A01 T00281052  RH  056%=      5-min Rain = 0
KPT1 111435Z 34024G33KT 03/M05 A2994 RMK A01 T00271052  RH  057%=      5-min Rain = 0
KPT1 111440Z 34025G33KT 03/M05 A2994 RMK A01 T00271052  RH  057%=      5-min Rain = 0
KPT1 111445Z 34021G29KT 03/M05 A2995 RMK A01 T00271052  RH  056%=      5-min Rain = 0
KPT1 111450Z 34022G32KT 03/M05 A2995 RMK A01 T00281051  RH  057%=      5-min Rain = 0
KPT1 111455Z 35018G25KT 03/M05 A2995 RMK A01 T00281051  RH  056%=      5-min Rain = 0
KPT1 111500Z 34020G27KT 03/M05 A2996 RMK A01 T00281051  RH  057%=      5-min Rain = 0
KPT1 111505Z 34016G21KT 03/M05 A2996 RMK A01 T00291049  RH  057%=      5-min Rain = 0
KPT1 111510Z 34017G25KT 03/M05 A2996 RMK A01 T00291049  RH  057%=      5-min Rain = 0
KPT1 111515Z 33019G28KT 03/M05 A2997 RMK A01 T00301049  RH  056%=      5-min Rain = 0
KPT1 111520Z 34021G27KT 03/M05 A2997 RMK A01 T00281053  RH  056%=      5-min Rain = 0
KPT1 111525Z 34021G27KT 03/M06 A2997 RMK A01 T00281055  RH  055%=      5-min Rain = 0
KPT1 111530Z 33021G31KT 03/M06 A2998 RMK A01 T00281059  RH  053%=      5-min Rain = 0
KPT1 111535Z 34025G32KT 03/M07 A2998 RMK A01 T00271065  RH  051%=      5-min Rain = 0
KPT1 111540Z 34023G32KT 03/M07 A2999 RMK A01 T00281069  RH  050%=      5-min Rain = 0
KPT1 111545Z 34020G26KT 03/M07 A30 RMK A01 T00291070  RH  049%=      5-min Rain = 0
KPT1 111550Z 34020G27KT 03/M07 A30 RMK A01 T00321069  RH  048%=      5-min Rain = 0
KPT1 111555Z 34020G29KT 04/M07 A3001 RMK A01 T00351070  RH  047%=      5-min Rain = 0
KPT1 111600Z 34019G27KT 04/M07 A3002 RMK A01 T00381070  RH  046%=      5-min Rain = 0
KPT1 111605Z 34023G32KT 04/M07 A3003 RMK A01 T00391073  RH  044%=      5-min Rain = 0
KPT1 111610Z 34023G33KT 04/M08 A3003 RMK A01 T00371077  RH  044%=      5-min Rain = 0
KPT1 111615Z 34025G32KT 03/M08 A3004 RMK A01 T00341080  RH  044%=      5-min Rain = 0
KPT1 111620Z 34027G35KT 03/M08 A3005 RMK A01 T00311079  RH  045%=      5-min Rain = 0
KPT1 111625Z 34025G35KT 03/M08 A3006 RMK A01 T00301079  RH  045%=      5-min Rain = 0
KPT1 111630Z 34022G30KT 03/M08 A3006 RMK A01 T00321080  RH  044%=      5-min Rain = 0
KPT1 111635Z 34020G30KT 04/M08 A3007 RMK A01 T00351080  RH  043%=      5-min Rain = 0
KPT1 111640Z 34023G30KT 03/M08 A3007 RMK A01 T00341082  RH  043%=      5-min Rain = 0
KPT1 111645Z 34024G31KT 03/M08 A3008 RMK A01 T00341083  RH  042%=      5-min Rain = 0
KPT1 111650Z 34023G32KT 04/M08 A3008 RMK A01 T00361084  RH  042%=      5-min Rain = 0
KPT1 111655Z 35022G30KT 04/M09 A3008 RMK A01 T00371085  RH  041%=      5-min Rain = 0
KPT1 111700Z 34023G32KT 04/M09 A3008 RMK A01 T00381086  RH  040%=      5-min Rain = 0
KPT1 111705Z 34020G27KT 05/M08 A3009 RMK A01 T00481083  RH  038%=      5-min Rain = 0
KPT1 111710Z 35021G29KT 05/M09 A3009 RMK A01 T00491085  RH  038%=      5-min Rain = 0
KPT1 111715Z 34023G29KT 05/M08 A3009 RMK A01 T00491084  RH  038%=      5-min Rain = 0
KPT1 111720Z 35020G27KT 06/M08 A3009 RMK A01 T00551084  RH  037%=      5-min Rain = 0
KPT1 111725Z 34020G27KT 06/M09 A3009 RMK A01 T00551085  RH  036%=      5-min Rain = 0
KPT1 111730Z 34021G28KT 05/M09 A3009 RMK A01 T00501087  RH  037%=      5-min Rain = 0
KPT1 111735Z 35021G29KT 06/M09 A301 RMK A01 T00551086  RH  036%=      5-min Rain = 0
KPT1 111740Z 35021G29KT 06/M09 A301 RMK A01 T00631086  RH  034%=      5-min Rain = 0
KPT1 111745Z 35023G32KT 06/M09 A301 RMK A01 T00641088  RH  033%=      5-min Rain = 0
KPT1 111750Z 36019G26KT 07/M09 A301 RMK A01 T00661087  RH  033%=      5-min Rain = 0
KPT1 111755Z 35023G31KT 07/M09 A3011 RMK A01 T00681091  RH  032%=      5-min Rain = 0
KPT1 111800Z 35022G32KT 07/M09 A3011 RMK A01 T00681092  RH  031%=      5-min Rain = 0
KPT1 111805Z 35024G31KT 07/M09 A3011 RMK A01 T00691093  RH  031%=      5-min Rain = 0
KPT1 111810Z 35023G30KT 07/M09 A3011 RMK A01 T00731094  RH  030%=      5-min Rain = 0
KPT1 111815Z 35021G28KT 08/M09 A3011 RMK A01 T00761094  RH  029%=      5-min Rain = 0
KPT1 111820Z 35021G29KT 08/M09 A3011 RMK A01 T00781093  RH  029%=      5-min Rain = 0
KPT1 111825Z 35022G28KT 08/M09 A3011 RMK A01 T00791094  RH  029%=      5-min Rain = 0
KPT1 111830Z 35021G29KT 08/M09 A3011 RMK A01 T00841094  RH  028%=      5-min Rain = 0
KPT1 111835Z 35022G29KT 08/M10 A3011 RMK A01 T00821097  RH  027%=      5-min Rain = 0
KPT1 111840Z 34023G31KT 08/M10 A3011 RMK A01 T00831095  RH  028%=      5-min Rain = 0
KPT1 111845Z 34024G32KT 08/M10 A3011 RMK A01 T00831096  RH  027%=      5-min Rain = 0
KPT1 111850Z 35022G27KT 08/M10 A3012 RMK A01 T00791099  RH  027%=      5-min Rain = 0
KPT1 111855Z 34020G27KT 08/M10 A3012 RMK A01 T00841098  RH  027%=      5-min Rain = 0
KPT1 111900Z 35021G29KT 09/M10 A3012 RMK A01 T00861101  RH  026%=      5-min Rain = 0
KPT1 111905Z 35019G26KT 09/M10 A3012 RMK A01 T00851103  RH  026%=      5-min Rain = 0
KPT1 111910Z 34021G29KT 09/M10 A3012 RMK A01 T00861102  RH  026%=      5-min Rain = 0
KPT1 111915Z 35019G26KT 09/M11 A3012 RMK A01 T00881105  RH  025%=      5-min Rain = 0
KPT1 111920Z 34024G33KT 09/M11 A3012 RMK A01 T00881108  RH  024%=      5-min Rain = 0
KPT1 111925Z 34022G31KT 09/M11 A3012 RMK A01 T00871109  RH  024%=      5-min Rain = 0
KPT1 111930Z 34021G28KT 09/M11 A3013 RMK A01 T00891109  RH  024%=      5-min Rain = 0
KPT1 111935Z 34021G31KT 09/M11 A3013 RMK A01 T00881113  RH  023%=      5-min Rain = 0
KPT1 111940Z 34020G28KT 09/M12 A3013 RMK A01 T00911115  RH  022%=      5-min Rain = 0
KPT1 111945Z 35019G27KT 09/M12 A3013 RMK A01 T00921115  RH  022%=      5-min Rain = 0
KPT1 111950Z 35018G32KT 10/M11 A3013 RMK A01 T00951113  RH  022%=      5-min Rain = 0
KPT1 111955Z 34023G30KT 09/M12 A3013 RMK A01 T00911116  RH  022%=      5-min Rain = 0
KPT1 112000Z 34021G27KT 09/M11 A3013 RMK A01 T00921114  RH  022%=      5-min Rain = 0
KPT1 112005Z 35021G29KT 09/M12 A3013 RMK A01 T00931116  RH  022%=      5-min Rain = 0
KPT1 112010Z 35019G27KT 09/M12 A3013 RMK A01 T00931117  RH  022%=      5-min Rain = 0
KPT1 112015Z 34020G26KT 09/M12 A3013 RMK A01 T00931115  RH  022%=      5-min Rain = 0
KPT1 112020Z 35020G28KT 10/M12 A3013 RMK A01 T00971115  RH  022%=      5-min Rain = 0
KPT1 112025Z 36019G29KT 10/M12 A3013 RMK A01 T00991116  RH  021%=      5-min Rain = 0
KPT1 112030Z 34017G28KT 10/M11 A3013 RMK A01 T01021114  RH  021%=      5-min Rain = 0
KPT1 112035Z 35022G31KT 10/M12 A3013 RMK A01 T01011118  RH  020%=      5-min Rain = 0
KPT1 112040Z 34020G30KT 10/M12 A3013 RMK A01 T00991118  RH  021%=      5-min Rain = 0
KPT1 112045Z 35019G29KT 10/M12 A3014 RMK A01 T00991117  RH  021%=      5-min Rain = 0
KPT1 112050Z 34020G29KT 10/M12 A3014 RMK A01 T01011115  RH  021%=      5-min Rain = 0
KPT1 112055Z 35020G29KT 10/M12 A3014 RMK A01 T01001118  RH  021%=      5-min Rain = 0
KPT1 112100Z 35019G26KT 10/M12 A3013 RMK A01 T01001119  RH  020%=      5-min Rain = 0
KPT1 112105Z 35021G27KT 10/M12 A3013 RMK A01 T00981119  RH  021%=      5-min Rain = 0
KPT1 112110Z 35020G31KT 10/M12 A3014 RMK A01 T00981119  RH  021%=      5-min Rain = 0
KPT1 112115Z 35020G28KT 10/M12 A3014 RMK A01 T00991119  RH  020%=      5-min Rain = 0
KPT1 112120Z 35021G28KT 10/M12 A3014 RMK A01 T00981121  RH  020%=      5-min Rain = 0
KPT1 112125Z 35019G26KT 10/M12 A3015 RMK A01 T01011120  RH  020%=      5-min Rain = 0
KPT1 112130Z 00019G27KT 10/M12 A3015 RMK A01 T00981118  RH  021%=      5-min Rain = 0
KPT1 112135Z 01018KT 10/M12 A3016 RMK A01 T01011118  RH  020%=      5-min Rain = 0
KPT1 112140Z 35017G26KT 10/M12 A3016 RMK A01 T01001118  RH  021%=      5-min Rain = 0
KPT1 112145Z 35016G24KT 10/M12 A3017 RMK A01 T01031118  RH  020%=      5-min Rain = 0
KPT1 112150Z 36020G27KT 10/M12 A3017 RMK A01 T01001124  RH  020%=      5-min Rain = 0
KPT1 112155Z 36018G24KT 10/M12 A3017 RMK A01 T00981123  RH  020%=      5-min Rain = 0
KPT1 112200Z 36017G24KT 10/M12 A3018 RMK A01 T00991123  RH  020%=      5-min Rain = 0
KPT1 112205Z 35015G21KT 10/M12 A3018 RMK A01 T01001123  RH  020%=      5-min Rain = 0
KPT1 112210Z 35016G21KT 10/M12 A3018 RMK A01 T01011120  RH  020%=      5-min Rain = 0
KPT1 112215Z 35015G20KT 10/M12 A3018 RMK A01 T01001121  RH  020%=      5-min Rain = 0
KPT1 112220Z 34018G24KT 10/M12 A3018 RMK A01 T00991121  RH  020%=      5-min Rain = 0
KPT1 112225Z 34016G22KT 10/M12 A3019 RMK A01 T00991122  RH  020%=      5-min Rain = 0
KPT1 112230Z 35018G23KT 10/M13 A3019 RMK A01 T00991125  RH  020%=      5-min Rain = 0
KPT1 112235Z 36017G24KT 10/M13 A3019 RMK A01 T00981126  RH  020%=      5-min Rain = 0
KPT1 112240Z 35016KT 10/M13 A3019 RMK A01 T00971125  RH  020%=      5-min Rain = 0
KPT1 112245Z 36015G24KT 10/M13 A3019 RMK A01 T00961126  RH  020%=      5-min Rain = 0
KPT1 112250Z 36017G24KT 10/M13 A3019 RMK A01 T00951126  RH  020%=      5-min Rain = 0
KPT1 112255Z 36016G22KT 09/M13 A3019 RMK A01 T00941125  RH  020%=      5-min Rain = 0
KPT1 112300Z 36017G22KT 09/M12 A3019 RMK A01 T00931124  RH  021%=      5-min Rain = 0
KPT1 112305Z 36015G22KT 09/M12 A302 RMK A01 T00921122  RH  021%=      5-min Rain = 0
KPT1 112310Z 00013G18KT 09/M12 A302 RMK A01 T00911122  RH  021%=      5-min Rain = 0
KPT1 112315Z 36013KT 09/M12 A302 RMK A01 T00911121  RH  021%=      5-min Rain = 0
KPT1 112320Z 00012KT 09/M12 A3021 RMK A01 T00901120  RH  022%=      5-min Rain = 0
KPT1 112325Z 36011G16KT 09/M12 A3021 RMK A01 T00891119  RH  022%=      5-min Rain = 0
KPT1 112330Z 36010G15KT 09/M12 A3021 RMK A01 T00871118  RH  022%=      5-min Rain = 0
KPT1 112335Z 35011G16KT 09/M12 A3022 RMK A01 T00861120  RH  022%=      5-min Rain = 0
KPT1 112340Z 35013G20KT 08/M12 A3022 RMK A01 T00841120  RH  023%=      5-min Rain = 0
KPT1 112345Z 35012G17KT 08/M12 A3022 RMK A01 T00821119  RH  023%=      5-min Rain = 0
KPT1 112350Z 35010G15KT 08/M12 A3023 RMK A01 T00791119  RH  023%=      5-min Rain = 0
KPT1 112355Z 35009KT 08/M12 A3023 RMK A01 T00761118  RH  024%=      5-min Rain = 0
KPT1 120000Z 35009KT 08/M12 A3023 RMK A01 T00751119  RH  024%=      5-min Rain = 0
KPT1 120005Z 35008KT 07/M12 A3023 RMK A01 T00721118  RH  025%=      5-min Rain = 0
KPT1 120010Z 34008KT 07/M12 A3024 RMK A01 T00671115  RH  026%=      5-min Rain = 0
KPT1 120015Z 34007KT 06/M11 A3024 RMK A01 T00621112  RH  028%=      5-min Rain = 0
KPT1 120020Z 34007KT 06/M11 A3024 RMK A01 T00581111  RH  029%=      5-min Rain = 0
KPT1 120025Z 35008KT 06/M12 A3024 RMK A01 T00581115  RH  028%=      5-min Rain = 0
KPT1 120030Z 34008KT 06/M12 A3024 RMK A01 T00561116  RH  028%=      5-min Rain = 0
KPT1 120035Z 35008KT 06/M12 A3024 RMK A01 T00571115  RH  028%=      5-min Rain = 0
KPT1 120040Z 35008KT 06/M12 A3024 RMK A01 T00561116  RH  028%=      5-min Rain = 0
KPT1 120045Z 35007KT 05/M12 A3025 RMK A01 T00541116  RH  029%=      5-min Rain = 0
KPT1 120050Z 34006KT 05/M11 A3025 RMK A01 T00491113  RH  030%=      5-min Rain = 0
KPT1 120055Z 34006KT 04/M11 A3025 RMK A01 T00421112  RH  032%=      5-min Rain = 0
KPT1 120100Z 32006KT 04/M12 A3025 RMK A01 T00361116  RH  032%=      5-min Rain = 0
KPT1 120105Z 31007KT 03/M12 A3025 RMK A01 T00311118  RH  033%=      5-min Rain = 0
KPT1 120110Z 33008KT 03/M12 A3025 RMK A01 T00341117  RH  033%=      5-min Rain = 0
KPT1 120115Z 33008KT 04/M12 A3025 RMK A01 T00381115  RH  032%=      5-min Rain = 0
KPT1 120120Z 32006KT 04/M12 A3025 RMK A01 T00361115  RH  033%=      5-min Rain = 0
KPT1 120125Z 33007KT 03/M12 A3026 RMK A01 T00321115  RH  034%=      5-min Rain = 0
KPT1 120130Z 33007KT 03/M12 A3026 RMK A01 T00331116  RH  033%=      5-min Rain = 0
KPT1 120135Z 33007KT 03/M12 A3026 RMK A01 T00331116  RH  033%=      5-min Rain = 0
KPT1 120140Z 33008KT 03/M12 A3026 RMK A01 T00311115  RH  034%=      5-min Rain = 0
KPT1 120145Z 34008KT 03/M11 A3026 RMK A01 T00321114  RH  034%=      5-min Rain = 0
KPT1 120150Z 33008KT 04/M11 A3026 RMK A01 T00351113  RH  033%=      5-min Rain = 0
KPT1 120155Z 33008KT 03/M11 A3026 RMK A01 T00341114  RH  033%=      5-min Rain = 0
KPT1 120200Z 33007KT 03/M11 A3026 RMK A01 T00321114  RH  034%=      5-min Rain = 0
KPT1 120205Z 33007KT 03/M12 A3027 RMK A01 T00291115  RH  034%=      5-min Rain = 0
KPT1 120210Z 32006KT 02/M12 A3027 RMK A01 T00231116  RH  035%=      5-min Rain = 0
KPT1 120215Z 32006KT 02/M12 A3027 RMK A01 T00171118  RH  037%=      5-min Rain = 0
KPT1 120220Z 32007KT 01/M12 A3027 RMK A01 T00141118  RH  037%=      5-min Rain = 0
KPT1 120225Z 33007KT 02/M12 A3028 RMK A01 T00151117  RH  037%=      5-min Rain = 0
KPT1 120230Z 34008KT 02/M12 A3027 RMK A01 T00171115  RH  037%=      5-min Rain = 0
KPT1 120235Z 34008KT 02/M11 A3027 RMK A01 T00191111  RH  038%=      5-min Rain = 0
KPT1 120240Z 34007KT 02/M11 A3027 RMK A01 T00201109  RH  038%=      5-min Rain = 0
KPT1 120245Z 34007KT 02/M11 A3027 RMK A01 T00191108  RH  039%=      5-min Rain = 0
KPT1 120250Z 34007KT 02/M11 A3027 RMK A01 T00171110  RH  039%=      5-min Rain = 0
KPT1 120255Z 34007KT 02/M11 A3027 RMK A01 T00151111  RH  039%=      5-min Rain = 0
KPT1 120300Z 32006KT 01/M11 A3027 RMK A01 T00111114  RH  039%=      5-min Rain = 0
KPT1 120305Z 32006KT 01/M12 A3027 RMK A01 T00081116  RH  040%=      5-min Rain = 0
KPT1 120310Z 33006KT 00/M12 A3027 RMK A01 T00041118  RH  040%=      5-min Rain = 0
KPT1 120315Z 31006KT 00/12 A3027 RMK A01 T00000-119  RH  041%=      5-min Rain = 0
KPT1 120320Z 30006KT M00/M12 A3027 RMK A01 T10021119  RH  041%=      5-min Rain = 0
KPT1 120325Z 32007KT 00/M12 A3027 RMK A01 T00011118  RH  041%=      5-min Rain = 0
KPT1 120330Z 32007KT 00/12 A3027 RMK A01 T00000-118  RH  041%=      5-min Rain = 0
KPT1 120335Z 31006KT M00/M12 A3028 RMK A01 T10031119  RH  042%=      5-min Rain = 0
KPT1 120340Z 31007KT M00/M12 A3028 RMK A01 T10031119  RH  042%=      5-min Rain = 0
KPT1 120345Z 30007KT 00/12 A3028 RMK A01 T00-00-118  RH  041%=      5-min Rain = 0
KPT1 120350Z 31007KT 00/M12 A3028 RMK A01 T00031117  RH  041%=      5-min Rain = 0
KPT1 120355Z 32008KT 00/M12 A3028 RMK A01 T00031117  RH  041%=      5-min Rain = 0
KPT1 120400Z 33007KT 00/12 A3028 RMK A01 T00000-116  RH  042%=      5-min Rain = 0
KPT1 120405Z 33006KT 00/M12 A3028 RMK A01 T00021116  RH  041%=      5-min Rain = 0
KPT1 120410Z 32006KT 00/M12 A3028 RMK A01 T00031116  RH  041%=      5-min Rain = 0
KPT1 120415Z 32007KT 00/M12 A3028 RMK A01 T00031115  RH  041%=      5-min Rain = 0
KPT1 120420Z 33007KT 00/M12 A3028 RMK A01 T00021115  RH  041%=      5-min Rain = 0
KPT1 120425Z 34007KT 00/M12 A3028 RMK A01 T00021115  RH  042%=      5-min Rain = 0
KPT1 120430Z 34006KT 00/M11 A3028 RMK A01 T00011114  RH  042%=      5-min Rain = 0
KPT1 120435Z 33005KT 00/11 A3028 RMK A01 T00000-113  RH  043%=      5-min Rain = 0
KPT1 120440Z 32005KT M00/M12 A3028 RMK A01 T10021115  RH  043%=      5-min Rain = 0
KPT1 120445Z 31004KT M00/M12 A3029 RMK A01 T10041115  RH  044%=      5-min Rain = 0
KPT1 120450Z 30004KT M00/M12 A3029 RMK A01 T10031116  RH  043%=      5-min Rain = 0
KPT1 120455Z 30005KT M00/M12 A3029 RMK A01 T10031116  RH  043%=      5-min Rain = 0
KPT1 120500Z 31005KT 00/12 A3029 RMK A01 T00-00-116  RH  042%=      5-min Rain = 0
KPT1 120505Z 32006KT M00/M12 A3029 RMK A01 T10011116  RH  042%=      5-min Rain = 0
KPT1 120510Z 33006KT M01/M12 A3029 RMK A01 T10061117  RH  043%=      5-min Rain = 0
KPT1 120515Z 33006KT M01/M12 A3029 RMK A01 T10071116  RH  044%=      5-min Rain = 0
KPT1 120520Z 33006KT M01/M12 A3029 RMK A01 T10071116  RH  044%=      5-min Rain = 0
KPT1 120525Z 33006KT M01/M12 A3029 RMK A01 T10071116  RH  044%=      5-min Rain = 0
KPT1 120530Z 32006KT M01/M12 A3029 RMK A01 T10081115  RH  045%=      5-min Rain = 0
KPT1 120535Z 32006KT M01/M12 A3029 RMK A01 T10101116  RH  045%=      5-min Rain = 0
KPT1 120540Z 32006KT M01/M12 A3029 RMK A01 T10121115  RH  046%=      5-min Rain = 0
KPT1 120545Z 33006KT M01/M11 A3029 RMK A01 T10121114  RH  046%=      5-min Rain = 0
KPT1 120550Z 34005KT M01/M11 A3028 RMK A01 T10091113  RH  045%=      5-min Rain = 0
KPT1 120555Z 34004KT M01/M11 A3028 RMK A01 T10081114  RH  045%=      5-min Rain = 0

Page generated in 0.0372 seconds.